Air Resources Laboratory banner image
Air Resources Laboratory web site National Oceanic and Atmospheric Administration (NOAA)

pa metar


KABE 200751Z AUTO 00000KT 10SM SCT022 BKN039 18/14 A3009 RMK AO2 SLP188
 T01830144=
KAGC 200753Z 00000KT 9SM CLR 18/17 A3007 RMK AO2 SLP179 T01830172=
KAOO 200753Z AUTO 00000KT 1/4SM FG VV003 16/15 A3012 RMK AO2 SLP192 T01560150=
KAVP 200754Z 11005KT 10SM CLR 13/12 A3011 RMK AO2 SLP192 T01330122 $=
KBFD 200753Z AUTO 11005KT 1/4SM FG VV002 14/14 A3012 RMK AO2 SLP190 T01390139=
KBTP 200756Z AUTO 00000KT 3/4SM BR CLR 15/14 A3009 RMK AO2 VIS 1/2V5 SLP188
 T01500144 RVRNO=
KCXY 200756Z AUTO 22003KT 10SM CLR 18/16 A3009 RMK AO2 SLP189 T01780156=
KDUJ 200753Z AUTO 10006KT 10SM CLR 14/13 A3010 RMK AO2 SLP182 T01440133 $=
KDYL 200754Z AUTO 00000KT 10SM BKN014 OVC028 20/19 A3008 RMK AO2 SLP181
 T02000189=
KERI 200751Z AUTO 00000KT 10SM CLR 16/13 A3007 RMK AO2 SLP182 T01560133 $=
KFIG 200754Z AUTO 06003KT 1/2SM FG VV002 15/15 A3012 RMK AO2 SLP192 T01500150=
KGKJ 200753Z AUTO 12003KT 10SM CLR 16/16 A3009 RMK AO2 SLP182 T01560156 $=
KIDI 200755Z AUTO 00000KT 9SM CLR 15/15 A3012 RMK A01=
KIPT 200754Z AUTO 00000KT 10SM CLR 14/13 A3011 RMK AO2 SLP194 T01440133=
KJST 200754Z AUTO 18003KT 10SM CLR 16/14 A3012 RMK AO2 SLP187 T01560144=
KLBE 200755Z AUTO 00000KT 5SM BR CLR 14/15 A3008 RMK AO2=
KLNS 200753Z 27003KT 10SM FEW020 17/16 A3009 RMK AO2 SLP185 T01720161=
KMDT 200756Z 00000KT 10SM CLR 17/15 A3009 RMK AO2 SLP187 T01720150 $=
KMPO 200753Z AUTO 00000KT 10SM OVC023 13/13 A3013 RMK AO2 SLP196 T01330133=
KPHL 200754Z 00000KT 8SM SCT015 BKN020 OVC031 21/19 A3008 RMK AO2 SLP186
 T02060189 $=
KPIT 200751Z 00000KT 8SM FEW250 16/16 A3007 RMK AO2 SLP182 T01610161=
KPNE 200754Z AUTO 12005KT 10SM BKN012 BKN022 22/19 A3009 RMK AO2 SLP189
 T02170189=
KPTW 200754Z AUTO 05003KT 10SM FEW013 SCT025 BKN030 17/16 A3010 RMK AO2 SLP188
 T01720161=
KRDG 200754Z AUTO 33003KT 10SM OVC021 18/17 A3008 RMK AO2 SLP187 T01780167=
KSEG 200753Z AUTO 34003KT 10SM CLR 14/13 A3012 RMK AO2 SLP196 T01440133=
KTHV 200753Z AUTO 00000KT 5SM BR CLR 15/15 A3009 RMK AO2 SLP189 T01500150 $=
KUNV 200755Z AUTO 05004KT 5SM BR BKN001 OVC049 15/15 A3012 RMK AO2 T01520152=